Time;durP1;ratioP1;P1;durP2;ratioP2;P2;SDS_P1;SDS_P2;PMS_P1;PMS_P2;Temp;Humidity;BMP_temperature;BMP_pressure;BME280_temperature;BME280_humidity;BME280_pressure;Samples;Min_cycle;Max_cycle;Signal;HPM_P1;HPM_P2
2021/11/12 00:12:31;;;;;;;22.07;14.23;;;3.90;99.90;;;;;;5032214;28;20429;-76
2021/11/12 00:14:57;;;;;;;23.53;14.57;;;3.80;99.90;;;;;;5030690;28;20961;-76
2021/11/12 00:17:29;;;;;;;25.50;15.57;;;3.80;99.90;;;;;;5030705;28;20415;-76
2021/11/12 00:19:56;;;;;;;20.03;14.30;;;3.80;99.90;;;;;;5030657;28;20422;-76
2021/11/12 00:22:23;;;;;;;21.30;12.97;;;3.80;99.90;;;;;;5030522;28;20434;-77
2021/11/12 00:25:01;;;;;;;21.87;13.80;;;3.70;99.90;;;;;;5030470;28;20419;-76
2021/11/12 00:27:28;;;;;;;23.00;15.40;;;3.60;99.90;;;;;;5030647;28;20450;-76
2021/11/12 00:35:41;;;;;;;17.37;12.50;;;3.60;99.90;;;;;;5009537;28;20440;-76
2021/11/12 00:40:46;;;;;;;25.00;15.27;;;3.50;99.90;;;;;;5021492;28;20442;-76
2021/11/12 00:43:37;;;;;;;19.40;14.63;;;3.50;99.90;;;;;;5030363;28;20318;-76
2021/11/12 00:51:48;;;;;;;20.77;13.50;;;3.50;99.90;;;;;;5031537;28;20458;-76
2021/11/12 00:56:31;;;;;;;23.27;13.80;;;3.50;99.90;;;;;;5031643;28;20538;-77
2021/11/12 00:59:00;;;;;;;19.63;13.87;;;3.50;99.90;;;;;;5033922;28;20610;-76
2021/11/12 01:01:29;;;;;;;21.57;14.23;;;3.50;99.90;;;;;;5034149;28;20426;-76
2021/11/12 01:03:55;;;;;;;18.53;12.53;;;3.50;99.90;;;;;;5034135;28;20431;-76
2021/11/12 01:06:21;;;;;;;20.57;12.63;;;3.50;99.90;;;;;;5034039;28;20458;-76
2021/11/12 01:08:48;;;;;;;19.13;13.67;;;3.40;99.90;;;;;;5034164;28;20801;-76
2021/11/12 01:11:15;;;;;;;20.90;13.70;;;3.40;99.90;;;;;;5033992;28;20462;-76
2021/11/12 01:13:42;;;;;;;18.63;12.90;;;3.50;99.90;;;;;;5033776;28;20469;-76
2021/11/12 01:16:08;;;;;;;18.73;14.10;;;3.50;99.90;;;;;;5034044;28;20448;-76
2021/11/12 01:18:36;;;;;;;19.47;13.40;;;3.50;99.90;;;;;;5033907;28;20421;-76
2021/11/12 01:21:07;;;;;;;21.67;14.37;;;3.50;99.90;;;;;;5033995;28;20949;-76
2021/11/12 01:23:33;;;;;;;18.07;12.70;;;3.50;99.90;;;;;;5033660;28;20953;-76
2021/11/12 01:26:00;;;;;;;20.67;14.07;;;3.40;99.90;;;;;;5033805;28;20534;-76
2021/11/12 01:28:26;;;;;;;18.10;12.90;;;3.40;99.90;;;;;;5033673;28;20657;-76
2021/11/12 01:30:55;;;;;;;19.97;14.13;;;3.40;99.90;;;;;;5034333;28;20984;-75
2021/11/12 01:33:21;;;;;;;18.63;13.90;;;3.40;99.90;;;;;;5033731;28;20426;-76
2021/11/12 01:35:47;;;;;;;19.40;14.93;;;3.30;99.90;;;;;;5033552;28;20451;-76
2021/11/12 01:38:14;;;;;;;19.77;13.33;;;3.30;99.90;;;;;;5033609;28;20580;-77
2021/11/12 01:40:40;;;;;;;19.80;14.27;;;3.30;99.90;;;;;;5033522;28;20191;-76
2021/11/12 01:43:14;;;;;;;23.07;16.20;;;3.30;99.90;;;;;;5033332;28;20782;-76
2021/11/12 01:46:05;;;;;;;21.70;15.00;;;3.30;99.90;;;;;;5033287;28;20482;-76
2021/11/12 01:51:08;;;;;;;22.20;16.03;;;3.20;99.90;;;;;;5034573;28;20553;-76
2021/11/12 01:53:40;;;;;;;25.23;15.90;;;3.30;99.90;;;;;;5033075;28;20418;-76
2021/11/12 02:01:20;;;;;;;22.03;14.23;;;3.10;99.90;;;;;;5034800;28;20421;-76
2021/11/12 02:03:51;;;;;;;19.00;13.70;;;3.10;99.90;;;;;;5032909;28;20430;-76
2021/11/12 02:06:20;;;;;;;14.87;11.80;;;3.10;99.90;;;;;;5032692;28;20496;-76
2021/11/12 02:08:48;;;;;;;19.17;12.97;;;3.10;99.90;;;;;;5032460;28;20470;-76
2021/11/12 02:11:14;;;;;;;16.83;11.50;;;3.10;99.90;;;;;;5032882;28;20546;-76
2021/11/12 02:13:42;;;;;;;17.60;12.07;;;3.00;99.90;;;;;;5032788;28;20990;-77
2021/11/12 02:16:13;;;;;;;16.57;11.10;;;3.00;99.90;;;;;;5032634;28;20443;-76
2021/11/12 02:18:42;;;;;;;14.73;12.37;;;3.00;99.90;;;;;;5032898;28;20860;-76
2021/11/12 02:26:24;;;;;;;20.53;13.00;;;3.00;99.90;;;;;;5033892;28;20990;-76
2021/11/12 02:28:56;;;;;;;17.33;11.70;;;3.10;99.90;;;;;;5032703;28;20458;-76
2021/11/12 02:31:26;;;;;;;18.50;11.70;;;3.20;99.90;;;;;;5032480;28;20521;-76
2021/11/12 02:33:53;;;;;;;14.50;10.83;;;3.20;99.90;;;;;;5032487;28;20779;-76
2021/11/12 02:36:19;;;;;;;17.07;12.00;;;3.30;99.90;;;;;;5032391;28;21017;-76
2021/11/12 02:38:49;;;;;;;17.63;10.67;;;3.30;99.90;;;;;;5032497;28;20497;-77
2021/11/12 02:41:15;;;;;;;21.03;12.03;;;3.30;99.90;;;;;;5032325;28;20454;-76
2021/11/12 02:43:45;;;;;;;15.37;11.17;;;3.30;99.90;;;;;;5032178;28;20459;-76
2021/11/12 02:46:14;;;;;;;18.33;11.80;;;3.30;99.90;;;;;;5032135;28;20880;-76
2021/11/12 02:48:41;;;;;;;16.33;11.33;;;3.30;99.90;;;;;;5032606;28;20423;-76
2021/11/12 02:51:10;;;;;;;21.63;11.93;;;3.30;99.90;;;;;;5032267;28;20463;-76
2021/11/12 02:53:37;;;;;;;19.80;11.40;;;3.30;99.90;;;;;;5031923;28;20430;-76
2021/11/12 02:56:08;;;;;;;22.90;12.97;;;3.40;99.90;;;;;;5032140;28;20446;-76
2021/11/12 02:58:37;;;;;;;23.93;11.90;;;3.40;99.90;;;;;;5032094;28;20427;-76
2021/11/12 03:01:03;;;;;;;22.43;13.10;;;3.40;99.90;;;;;;5032107;28;20914;-76
2021/11/12 03:03:29;;;;;;;22.87;12.60;;;3.40;99.90;;;;;;5031809;28;20465;-76
2021/11/12 03:05:56;;;;;;;25.93;12.77;;;3.40;99.90;;;;;;5031837;28;20439;-76
2021/11/12 03:08:22;;;;;;;27.77;12.70;;;3.40;99.90;;;;;;5031965;28;20222;-76
2021/11/12 03:10:50;;;;;;;19.27;11.20;;;3.50;99.90;;;;;;5031808;28;20569;-76
2021/11/12 03:13:16;;;;;;;21.33;11.90;;;3.50;99.90;;;;;;5031562;28;20564;-75
2021/11/12 03:15:42;;;;;;;24.50;13.70;;;3.50;99.90;;;;;;5031671;28;20530;-76
2021/11/12 03:18:08;;;;;;;24.40;12.40;;;3.50;99.90;;;;;;5031671;28;20421;-76
2021/11/12 03:20:35;;;;;;;22.93;11.57;;;3.60;99.90;;;;;;5030748;28;20429;-76
2021/11/12 03:23:09;;;;;;;27.83;12.83;;;3.60;99.90;;;;;;5031442;28;20952;-76
2021/11/12 03:25:44;;;;;;;23.87;11.90;;;3.60;99.90;;;;;;5031614;28;20457;-76
2021/11/12 04:00:55;;;;;;;37.20;14.70;;;4.10;99.90;;;;;;5032449;28;20422;-76
2021/11/12 04:20:08;;;;;;;30.73;13.83;;;4.10;99.90;;;;;;5032363;28;20437;-76
2021/11/12 05:51:57;;;;;;;24.73;14.37;;;5.30;99.90;;;;;;5034509;28;20543;-76
2021/11/12 05:57:08;;;;;;;24.43;13.67;;;5.30;99.90;;;;;;5034785;28;20436;-77
2021/11/12 05:59:34;;;;;;;28.03;13.80;;;5.20;99.90;;;;;;5033328;28;20448;-76
2021/11/12 06:02:00;;;;;;;21.70;13.80;;;5.30;99.90;;;;;;5032904;28;20953;-76
2021/11/12 06:04:26;;;;;;;28.47;13.80;;;5.30;99.90;;;;;;5033154;28;20423;-76
2021/11/12 06:06:52;;;;;;;26.67;13.73;;;5.30;99.90;;;;;;5032975;28;20580;-76
2021/11/12 06:09:18;;;;;;;23.70;12.90;;;5.30;99.90;;;;;;5033368;28;20189;-76
2021/11/12 06:11:44;;;;;;;22.13;12.67;;;5.30;99.90;;;;;;5032703;28;20555;-76
2021/11/12 06:14:10;;;;;;;23.73;12.47;;;5.30;99.90;;;;;;5032925;28;20916;-77
2021/11/12 06:16:37;;;;;;;26.63;15.30;;;5.30;99.90;;;;;;5032775;28;20454;-76
2021/11/12 06:19:04;;;;;;;19.37;10.90;;;5.30;99.90;;;;;;5032761;28;20412;-76
2021/11/12 06:21:30;;;;;;;24.87;13.27;;;5.20;99.90;;;;;;5032828;28;20511;-76
2021/11/12 06:23:56;;;;;;;25.47;15.93;;;5.10;99.90;;;;;;5032728;28;20799;-77
2021/11/12 06:26:24;;;;;;;26.47;13.40;;;5.10;99.90;;;;;;5032695;28;20443;-76
2021/11/12 06:28:50;;;;;;;23.07;11.70;;;5.10;99.90;;;;;;5032625;28;20432;-76
2021/11/12 06:31:19;;;;;;;28.77;14.13;;;5.20;99.90;;;;;;5032498;28;20503;-77
2021/11/12 06:33:49;;;;;;;27.67;13.60;;;5.10;99.90;;;;;;5032451;28;20517;-76
2021/11/12 06:36:15;;;;;;;20.67;11.70;;;5.10;99.90;;;;;;5032490;28;20442;-76
2021/11/12 06:38:41;;;;;;;25.07;13.17;;;5.00;99.90;;;;;;5032440;28;20409;-75
2021/11/12 06:41:12;;;;;;;24.30;13.47;;;5.10;99.90;;;;;;5032478;28;20489;-76
2021/11/12 06:44:09;;;;;;;25.40;13.60;;;5.10;99.90;;;;;;5032160;28;20423;-76
2021/11/12 06:49:31;;;;;;;28.27;13.47;;;5.10;99.90;;;;;;5033830;28;20494;-76
2021/11/12 06:51:57;;;;;;;28.20;14.60;;;5.20;99.90;;;;;;5032121;28;20472;-76
2021/11/12 06:54:24;;;;;;;25.00;13.77;;;5.10;99.90;;;;;;5032844;28;20824;-76
2021/11/12 06:56:49;;;;;;;27.33;13.60;;;5.10;99.90;;;;;;5032317;28;20444;-76
2021/11/12 06:59:15;;;;;;;23.80;12.83;;;5.10;99.90;;;;;;5032076;28;20816;-76
2021/11/12 07:01:42;;;;;;;23.87;12.43;;;5.00;99.90;;;;;;5031902;28;20425;-76
2021/11/12 07:04:08;;;;;;;24.73;12.60;;;5.00;99.90;;;;;;5031981;28;20424;-76
2021/11/12 07:06:36;;;;;;;21.13;12.80;;;5.00;99.90;;;;;;5031855;28;20995;-76
2021/11/12 07:09:07;;;;;;;22.73;11.87;;;5.00;99.90;;;;;;5031953;28;20474;-76
2021/11/12 07:11:34;;;;;;;21.20;11.50;;;5.00;99.90;;;;;;5031711;28;20465;-76
2021/11/12 07:14:04;;;;;;;27.03;14.80;;;5.00;99.90;;;;;;5031788;28;20430;-76
2021/11/12 07:16:30;;;;;;;23.93;14.10;;;5.00;99.90;;;;;;5031675;28;20480;-76
2021/11/12 07:18:56;;;;;;;27.23;13.03;;;5.00;99.90;;;;;;5031746;28;20427;-76
2021/11/12 07:21:26;;;;;;;29.90;14.83;;;5.00;99.90;;;;;;5031594;28;20430;-76
2021/11/12 07:23:54;;;;;;;25.57;12.80;;;5.10;99.90;;;;;;5031549;28;20416;-76
2021/11/12 07:26:21;;;;;;;29.60;15.57;;;5.10;99.90;;;;;;5031437;28;20828;-76
2021/11/12 07:28:48;;;;;;;24.33;12.90;;;5.20;99.90;;;;;;5031285;28;20416;-76
2021/11/12 07:31:17;;;;;;;25.43;13.53;;;5.20;99.90;;;;;;5031307;28;20839;-76
2021/11/12 07:33:44;;;;;;;29.50;16.77;;;5.20;99.90;;;;;;5031289;28;20449;-76
2021/11/12 07:49:00;;;;;;;26.60;14.27;;;5.20;99.90;;;;;;5033862;28;20426;-78
2021/11/12 07:51:27;;;;;;;25.70;13.73;;;5.10;99.90;;;;;;5031299;28;20467;-77
2021/11/12 07:53:54;;;;;;;17.03;12.40;;;5.10;99.90;;;;;;5031022;28;20788;-78
2021/11/12 07:56:21;;;;;;;23.23;15.00;;;5.20;99.90;;;;;;5030960;28;20505;-79
2021/11/12 07:58:48;;;;;;;21.10;12.50;;;5.20;99.90;;;;;;5031243;28;20469;-78
2021/11/12 08:01:14;;;;;;;21.13;12.43;;;5.30;99.90;;;;;;5031075;28;20423;-78
2021/11/12 08:03:42;;;;;;;20.00;13.03;;;5.40;99.90;;;;;;5030973;28;20426;-77
2021/11/12 08:06:11;;;;;;;19.53;13.20;;;5.40;99.90;;;;;;5030529;28;20479;-78
2021/11/12 08:08:38;;;;;;;17.20;11.60;;;5.40;99.90;;;;;;5031945;28;20515;-78
2021/11/12 08:11:15;;;;;;;21.93;12.10;;;5.40;99.90;;;;;;5033226;28;20569;-78
2021/11/12 08:21:20;;;;;;;19.57;11.60;;;5.50;99.90;;;;;;5033173;28;20425;-78
2021/11/12 08:23:53;;;;;;;19.87;11.90;;;5.60;99.90;;;;;;5033617;28;20426;-79
2021/11/12 08:26:58;;;;;;;22.03;12.37;;;5.60;99.90;;;;;;5035473;28;20451;-79
2021/11/12 08:29:27;;;;;;;17.93;12.10;;;5.60;99.90;;;;;;5036662;28;20430;-79
2021/11/12 08:42:51;;;;;;;16.97;11.20;;;5.60;99.90;;;;;;5027352;28;20417;-79
2021/11/12 08:45:23;;;;;;;17.50;11.47;;;5.50;99.90;;;;;;5035936;28;20547;-78
2021/11/12 08:47:56;;;;;;;16.90;11.40;;;5.50;99.90;;;;;;5034906;28;20419;-78
2021/11/12 08:50:23;;;;;;;17.43;11.70;;;5.50;99.90;;;;;;5036385;28;20474;-79
2021/11/12 08:52:53;;;;;;;17.63;11.33;;;5.60;99.90;;;;;;5036421;28;20482;-79
2021/11/12 08:55:25;;;;;;;16.47;11.40;;;5.70;99.90;;;;;;5035780;28;20443;-79
2021/11/12 08:57:52;;;;;;;18.53;11.87;;;5.70;99.90;;;;;;5036356;28;20427;-79
2021/11/12 09:00:18;;;;;;;21.97;12.20;;;5.80;99.90;;;;;;5036540;28;20432;-77
2021/11/12 09:02:45;;;;;;;17.40;11.70;;;5.90;99.90;;;;;;5036895;28;20506;-79
2021/11/12 09:05:11;;;;;;;16.90;11.77;;;6.10;99.90;;;;;;5036863;28;20888;-78
2021/11/12 09:07:37;;;;;;;18.57;12.00;;;6.20;99.90;;;;;;5037235;28;20460;-79
2021/11/12 09:10:04;;;;;;;20.73;12.70;;;6.30;99.90;;;;;;5036217;28;20431;-79
2021/11/12 09:12:30;;;;;;;16.10;10.77;;;6.40;99.90;;;;;;5037094;28;20556;-79
2021/11/12 09:14:59;;;;;;;17.70;11.37;;;6.40;99.90;;;;;;5032272;28;20430;-78
2021/11/12 09:17:30;;;;;;;18.80;11.73;;;6.30;99.90;;;;;;5031827;28;20430;-78
2021/11/12 09:20:00;;;;;;;19.40;11.67;;;6.20;99.90;;;;;;5034692;28;20805;-78
2021/11/12 09:22:34;;;;;;;17.20;11.90;;;6.20;99.90;;;;;;5036018;28;20417;-78
2021/11/12 09:25:00;;;;;;;18.10;10.70;;;6.20;99.90;;;;;;5034414;28;20416;-78
2021/11/12 09:27:26;;;;;;;16.60;12.43;;;6.30;99.90;;;;;;5033738;28;20426;-78
2021/11/12 09:29:51;;;;;;;15.60;12.30;;;6.20;99.90;;;;;;5033888;28;20551;-78
2021/11/12 09:32:18;;;;;;;21.83;12.50;;;6.30;99.90;;;;;;5033563;28;20480;-78
2021/11/12 09:34:44;;;;;;;17.70;11.83;;;6.40;99.90;;;;;;5031421;28;20778;-78
2021/11/12 09:37:13;;;;;;;16.60;11.37;;;6.50;99.90;;;;;;5032059;28;20447;-78
2021/11/12 09:39:40;;;;;;;15.90;11.17;;;6.40;99.90;;;;;;5033836;28;20982;-78
2021/11/12 09:42:08;;;;;;;17.87;12.90;;;6.50;99.90;;;;;;5033242;28;20509;-78
2021/11/12 09:44:35;;;;;;;17.00;12.13;;;6.50;99.90;;;;;;5033150;28;20449;-78
2021/11/12 09:47:04;;;;;;;20.00;12.47;;;6.70;99.90;;;;;;5033404;28;20438;-78
2021/11/12 09:49:30;;;;;;;18.67;12.20;;;6.60;99.90;;;;;;5033464;28;20429;-78
2021/11/12 09:51:55;;;;;;;18.47;11.90;;;6.60;99.90;;;;;;5033166;28;20838;-78
2021/11/12 09:54:22;;;;;;;16.10;11.03;;;6.60;99.90;;;;;;5033393;28;20422;-78
2021/11/12 09:56:48;;;;;;;17.50;12.03;;;6.70;99.90;;;;;;5033417;28;20579;-78
2021/11/12 09:59:14;;;;;;;18.33;12.17;;;6.80;99.90;;;;;;5033329;28;20449;-78
2021/11/12 10:01:40;;;;;;;15.10;11.43;;;7.00;99.90;;;;;;5033516;28;20235;-78
2021/11/12 10:04:11;;;;;;;16.23;12.67;;;7.00;99.90;;;;;;5033273;28;20197;-78
2021/11/12 10:06:43;;;;;;;17.73;12.20;;;7.00;99.90;;;;;;5033340;28;20470;-78
2021/11/12 10:09:17;;;;;;;16.20;11.50;;;7.00;99.90;;;;;;5033390;28;20432;-78
2021/11/12 10:11:56;;;;;;;15.73;11.63;;;7.10;99.90;;;;;;5033190;28;20472;-79
2021/11/12 10:17:07;;;;;;;16.67;12.13;;;7.30;99.90;;;;;;5034290;28;20439;-78
2021/11/12 10:19:45;;;;;;;15.37;11.77;;;7.60;99.90;;;;;;5032514;28;20430;-78
2021/11/12 10:22:11;;;;;;;14.23;12.10;;;7.80;99.90;;;;;;5032911;28;20434;-78
2021/11/12 10:24:43;;;;;;;16.90;11.47;;;7.70;99.90;;;;;;5033215;28;20423;-78
2021/11/12 10:27:21;;;;;;;16.77;12.33;;;7.80;99.90;;;;;;5030920;28;20537;-78
2021/11/12 10:29:53;;;;;;;19.87;11.57;;;7.80;99.90;;;;;;5021087;28;20997;-78
2021/11/12 10:32:28;;;;;;;16.03;10.73;;;7.60;99.90;;;;;;5014382;28;20472;-78
2021/11/12 10:35:03;;;;;;;17.37;10.93;;;7.70;99.90;;;;;;5022739;28;20427;-78
2021/11/12 10:37:33;;;;;;;15.47;11.77;;;7.80;99.90;;;;;;5049862;28;20863;-78
2021/11/12 10:40:08;;;;;;;15.50;11.37;;;7.70;99.90;;;;;;5033782;28;20506;-78
2021/11/12 10:42:38;;;;;;;16.90;11.93;;;7.70;99.90;;;;;;5033376;28;20834;-78
2021/11/12 10:45:25;;;;;;;17.50;11.20;;;7.70;99.90;;;;;;5033497;28;20485;-78
2021/11/12 10:47:56;;;;;;;12.73;9.43;;;7.80;99.90;;;;;;5033366;28;20518;-78
2021/11/12 10:50:25;;;;;;;15.40;10.57;;;7.90;99.90;;;;;;5032965;28;20466;-78
2021/11/12 10:52:55;;;;;;;18.10;11.97;;;8.00;99.90;;;;;;5033674;28;20954;-78
2021/11/12 10:55:24;;;;;;;16.57;11.60;;;8.20;99.90;;;;;;5033459;28;20443;-78
2021/11/12 10:58:06;;;;;;;17.30;10.40;;;8.70;99.90;;;;;;5033396;28;20416;-79
2021/11/12 11:00:37;;;;;;;16.30;10.80;;;11.20;99.90;;;;;;5034550;28;21092;-78
2021/11/12 11:03:04;;;;;;;11.63;9.13;;;14.10;99.90;;;;;;5035877;28;20460;-79
2021/11/12 11:05:40;;;;;;;11.77;9.40;;;16.40;99.90;;;;;;5035402;28;20431;-78
2021/11/12 11:08:13;;;;;;;15.23;10.93;;;18.30;99.90;;;;;;5032520;28;20971;-76
2021/11/12 11:10:50;;;;;;;13.10;10.23;;;19.20;99.90;;;;;;5033401;28;20465;-79
2021/11/12 11:13:25;;;;;;;13.03;9.93;;;19.00;99.90;;;;;;5031693;28;20505;-76
2021/11/12 11:15:53;;;;;;;13.40;9.70;;;18.60;99.90;;;;;;5031630;28;20442;-76
2021/11/12 11:18:29;;;;;;;12.87;10.80;;;20.10;99.90;;;;;;5031678;28;20426;-76
2021/11/12 11:21:25;;;;;;;12.00;9.00;;;21.30;93.50;;;;;;5031164;28;20451;-76
2021/11/12 11:24:06;;;;;;;16.67;10.27;;;22.00;90.30;;;;;;5032218;28;20446;-77
2021/11/12 11:26:43;;;;;;;12.77;10.20;;;23.20;80.20;;;;;;5031481;28;20545;-76
2021/11/12 11:29:11;;;;;;;13.70;10.97;;;23.50;76.70;;;;;;5031592;28;20445;-76
2021/11/12 11:31:40;;;;;;;13.17;10.40;;;24.40;70.80;;;;;;5031091;28;20597;-75
2021/11/12 11:34:06;;;;;;;12.53;9.73;;;24.40;67.20;;;;;;5027131;28;20437;-76
2021/11/12 11:36:44;;;;;;;11.93;10.27;;;24.60;63.90;;;;;;5026599;28;20582;-76
2021/11/12 11:39:19;;;;;;;12.73;9.93;;;25.50;61.40;;;;;;5031469;28;20961;-76
2021/11/12 11:41:45;;;;;;;13.00;10.40;;;25.70;59.60;;;;;;5031526;28;20440;-78
2021/11/12 11:44:16;;;;;;;11.33;9.40;;;26.10;57.40;;;;;;5031366;28;20434;-76
2021/11/12 11:46:45;;;;;;;10.03;8.33;;;25.60;56.60;;;;;;5027569;28;20520;-76
2021/11/12 11:49:26;;;;;;;11.00;9.10;;;25.20;56.60;;;;;;5011647;28;20432;-77
2021/11/12 11:51:58;;;;;;;10.87;9.40;;;25.30;56.10;;;;;;5010798;28;20467;-77
2021/11/12 11:54:34;;;;;;;11.70;10.40;;;25.30;55.80;;;;;;5011114;28;20421;-76
2021/11/12 11:57:15;;;;;;;14.40;10.73;;;25.10;55.90;;;;;;5024541;28;20962;-76
2021/11/12 11:59:41;;;;;;;15.03;10.83;;;24.00;55.50;;;;;;5030933;28;20423;-77
2021/11/12 12:02:14;;;;;;;13.10;10.60;;;23.00;56.80;;;;;;5027736;28;20435;-76
2021/11/12 12:04:49;;;;;;;14.50;11.40;;;22.90;57.40;;;;;;5031060;28;20434;-76
2021/11/12 12:07:23;;;;;;;12.67;10.13;;;23.60;58.00;;;;;;5030666;28;20548;-76
2021/11/12 12:10:00;;;;;;;13.43;10.37;;;24.00;57.50;;;;;;5030935;28;20422;-76
2021/11/12 12:12:34;;;;;;;13.90;10.73;;;24.30;56.50;;;;;;5030605;28;20427;-76
2021/11/12 12:15:03;;;;;;;13.80;10.33;;;24.70;55.80;;;;;;5030701;28;20787;-77
2021/11/12 12:17:32;;;;;;;15.10;11.07;;;24.10;55.10;;;;;;5030880;28;20788;-76
2021/11/12 13:25:10;;;;;;;12.80;10.20;;;15.60;90.50;;;;;;5019223;28;20436;-79
2021/11/12 13:27:37;;;;;;;16.23;10.63;;;15.20;94.30;;;;;;5018041;28;20432;-78
2021/11/12 13:30:06;;;;;;;14.37;9.30;;;14.50;97.60;;;;;;5017825;28;20422;-78
2021/11/12 13:32:37;;;;;;;16.67;10.77;;;14.00;99.90;;;;;;5017873;28;20428;-78
2021/11/12 13:35:03;;;;;;;10.63;8.87;;;13.60;99.90;;;;;;5017783;28;20463;-77
2021/11/12 13:37:29;;;;;;;13.77;10.40;;;13.40;99.90;;;;;;5019918;28;20423;-78
2021/11/12 13:40:07;;;;;;;14.33;10.70;;;13.30;99.90;;;;;;5018588;28;20430;-78
2021/11/12 13:42:45;;;;;;;14.33;10.57;;;13.00;99.90;;;;;;5035414;28;20245;-78
2021/11/12 13:45:20;;;;;;;13.67;9.57;;;12.80;99.90;;;;;;5017999;28;20499;-78
2021/11/12 13:47:57;;;;;;;12.43;9.60;;;12.60;99.90;;;;;;5017652;28;20426;-78
2021/11/12 13:50:23;;;;;;;14.97;9.40;;;12.70;99.90;;;;;;5018170;28;20982;-78
2021/11/12 13:52:51;;;;;;;16.43;10.60;;;12.80;99.90;;;;;;5018056;28;20424;-78
2021/11/12 13:55:17;;;;;;;15.93;11.30;;;12.70;99.90;;;;;;5018987;28;21008;-78
2021/11/12 13:57:58;;;;;;;15.73;10.13;;;12.70;99.90;;;;;;5018729;28;20496;-78
2021/11/12 14:00:27;;;;;;;15.50;10.27;;;12.60;99.90;;;;;;5018516;28;20432;-78
2021/11/12 14:03:03;;;;;;;12.80;10.00;;;12.60;99.90;;;;;;5035103;28;20453;-78
2021/11/12 14:05:30;;;;;;;16.17;9.80;;;12.60;99.90;;;;;;5035655;28;20462;-78
2021/11/12 14:08:22;;;;;;;13.43;9.70;;;12.50;99.90;;;;;;5036998;28;20431;-78
2021/11/12 14:10:51;;;;;;;11.97;9.03;;;12.30;99.90;;;;;;5035868;28;20463;-78
2021/11/12 14:13:19;;;;;;;13.20;9.27;;;12.20;99.90;;;;;;5036879;28;20427;-78
2021/11/12 14:16:14;;;;;;;16.10;10.57;;;12.10;99.90;;;;;;5037260;28;20534;-78
2021/11/12 14:22:00;;;;;;;13.70;10.27;;;11.70;99.90;;;;;;5038832;28;20415;-79
2021/11/12 14:24:47;;;;;;;15.20;10.07;;;11.50;99.90;;;;;;5037717;28;20431;-78
2021/11/12 14:37:50;;;;;;;20.80;11.87;;;10.90;99.90;;;;;;5039366;28;20411;-78
2021/11/12 14:45:42;;;;;;;17.67;11.10;;;10.60;99.90;;;;;;5038657;28;20504;-78
2021/11/12 14:48:37;;;;;;;13.57;9.90;;;10.60;99.90;;;;;;5037905;28;20423;-78
2021/11/12 14:51:05;;;;;;;15.60;10.20;;;10.50;99.90;;;;;;5037603;28;20516;-78
2021/11/12 14:54:11;;;;;;;16.30;10.77;;;10.50;99.90;;;;;;5037416;28;20455;-78
2021/11/12 14:56:30;;;;;;;17.17;12.23;;;10.40;99.90;;;;;;5037042;28;20493;-78
2021/11/12 14:59:01;;;;;;;17.30;10.77;;;10.40;99.90;;;;;;5037473;28;20419;-78
2021/11/12 15:01:32;;;;;;;14.37;9.97;;;10.50;99.90;;;;;;5037268;28;20836;-78
2021/11/12 15:03:58;;;;;;;19.07;11.30;;;10.30;99.90;;;;;;5037410;28;20927;-78
2021/11/12 15:06:28;;;;;;;13.50;10.83;;;10.20;99.90;;;;;;5037888;28;20469;-79
2021/11/12 15:11:29;;;;;;;12.53;9.77;;;9.90;99.90;;;;;;5038019;28;20466;-78
2021/11/12 15:16:52;;;;;;;13.43;9.70;;;9.80;99.90;;;;;;5033559;28;20485;-78
2021/11/12 15:19:21;;;;;;;13.67;8.90;;;9.80;99.90;;;;;;5037251;28;20419;-78
2021/11/12 15:24:43;;;;;;;14.23;11.53;;;9.60;99.90;;;;;;5039060;28;20409;-78
2021/11/12 15:29:54;;;;;;;14.03;10.17;;;9.40;99.90;;;;;;5038725;28;20454;-78
2021/11/12 15:32:33;;;;;;;15.50;10.63;;;9.40;99.90;;;;;;5036647;28;20532;-77
2021/11/12 15:35:12;;;;;;;14.33;9.67;;;9.30;99.90;;;;;;5036395;28;20434;-78
2021/11/12 15:37:48;;;;;;;13.20;10.40;;;9.30;99.90;;;;;;5037764;28;20859;-78
2021/11/12 15:40:22;;;;;;;17.63;11.67;;;9.20;99.90;;;;;;5038473;28;20429;-78
2021/11/12 15:48:05;;;;;;;18.03;11.50;;;9.00;99.90;;;;;;5039196;28;20424;-78
2021/11/12 15:50:46;;;;;;;19.77;12.03;;;8.90;99.90;;;;;;5036866;28;20470;-78
2021/11/12 16:14:31;;;;;;;19.00;11.23;;;8.30;99.90;;;;;;5036263;28;20901;-78
2021/11/12 16:27:31;;;;;;;18.83;12.10;;;7.90;99.90;;;;;;5031937;28;20187;-78
2021/11/12 16:30:00;;;;;;;13.77;10.67;;;7.80;99.90;;;;;;5030687;28;20790;-78
2021/11/12 16:35:10;;;;;;;17.43;11.83;;;7.80;99.90;;;;;;5031347;28;20439;-78
2021/11/12 16:37:38;;;;;;;14.73;10.20;;;7.70;99.90;;;;;;5030706;28;20419;-78
2021/11/12 16:40:19;;;;;;;14.27;11.03;;;7.70;99.90;;;;;;5030454;28;20445;-77
2021/11/12 17:03:01;;;;;;;17.33;11.13;;;7.20;99.90;;;;;;5053624;28;20422;-77
2021/11/12 17:16:33;;;;;;;16.60;11.70;;;7.10;99.90;;;;;;5042078;28;20533;-78
2021/11/12 17:46:43;;;;;;;18.40;10.93;;;6.50;99.90;;;;;;5036830;28;20585;-77
2021/11/12 18:02:35;;;;;;;17.73;10.70;;;6.40;99.90;;;;;;5034731;28;20404;-77
2021/11/12 18:05:11;;;;;;;17.33;11.70;;;6.40;99.90;;;;;;5033116;28;20488;-78
2021/11/12 21:46:19;;;;;;;16.53;10.67;;;5.90;99.90;;;;;;5034970;28;20964;-78
2021/11/12 21:48:52;;;;;;;15.63;10.57;;;6.00;99.90;;;;;;5033578;28;20429;-78
2021/11/12 21:51:24;;;;;;;18.07;11.57;;;6.10;99.90;;;;;;5033563;28;20495;-78
2021/11/12 21:53:56;;;;;;;15.30;10.50;;;6.20;99.90;;;;;;5033198;28;20430;-78
2021/11/12 21:56:22;;;;;;;15.40;11.10;;;6.30;99.90;;;;;;5033414;28;20472;-78
2021/11/12 21:58:49;;;;;;;14.47;10.53;;;6.30;99.90;;;;;;5033346;28;20971;-78
2021/11/12 22:01:16;;;;;;;16.97;12.20;;;6.40;99.90;;;;;;5033312;28;20948;-78
2021/11/12 22:03:42;;;;;;;15.10;10.73;;;6.40;99.90;;;;;;5033053;28;20432;-78
2021/11/12 22:06:08;;;;;;;16.80;10.10;;;6.40;99.90;;;;;;5033302;28;20447;-78
2021/11/12 22:08:34;;;;;;;16.00;9.93;;;6.50;99.90;;;;;;5032933;28;20914;-78
2021/11/12 22:11:03;;;;;;;16.47;11.03;;;6.50;99.90;;;;;;5033131;28;20476;-78
2021/11/12 22:13:30;;;;;;;16.30;11.07;;;6.50;99.90;;;;;;5032957;28;20517;-78
2021/11/12 22:15:57;;;;;;;13.60;9.43;;;6.50;99.90;;;;;;5032872;28;20487;-78
2021/11/12 22:18:23;;;;;;;15.03;10.23;;;6.50;99.90;;;;;;5033110;28;20462;-78
2021/11/12 22:20:49;;;;;;;16.63;11.53;;;6.50;99.90;;;;;;5032910;28;20469;-77
2021/11/12 22:23:20;;;;;;;14.90;11.07;;;6.60;99.90;;;;;;5032781;28;20866;-78
2021/11/12 22:25:47;;;;;;;13.83;10.27;;;6.50;99.90;;;;;;5032129;28;20458;-78
2021/11/12 22:28:13;;;;;;;16.20;10.30;;;6.50;99.90;;;;;;5032892;28;20419;-78
2021/11/12 22:30:39;;;;;;;13.30;9.63;;;6.60;99.90;;;;;;5032628;28;20434;-78
2021/11/12 22:33:06;;;;;;;17.37;11.07;;;6.60;99.90;;;;;;5032579;28;20224;-77
2021/11/12 22:35:33;;;;;;;16.17;10.67;;;6.60;99.90;;;;;;5032641;28;20550;-78
2021/11/12 22:38:00;;;;;;;14.53;10.53;;;6.50;99.90;;;;;;5032690;28;20434;-78
2021/11/12 22:40:26;;;;;;;18.57;10.80;;;6.50;99.90;;;;;;5032601;28;20480;-78
2021/11/12 22:42:52;;;;;;;13.07;10.00;;;6.30;99.90;;;;;;5032567;28;20515;-78
2021/11/12 22:45:18;;;;;;;19.67;11.60;;;6.30;99.90;;;;;;5033041;28;20544;-77
2021/11/12 22:47:48;;;;;;;18.00;11.37;;;6.20;99.90;;;;;;5032634;28;20514;-78
2021/11/12 22:50:14;;;;;;;19.17;10.83;;;6.20;99.90;;;;;;5032515;28;20418;-78
2021/11/12 22:52:41;;;;;;;17.00;10.67;;;6.20;99.90;;;;;;5032164;28;20470;-78
2021/11/12 22:55:08;;;;;;;19.10;13.03;;;6.10;99.90;;;;;;5032749;28;20435;-78
2021/11/12 22:57:34;;;;;;;16.30;11.10;;;6.00;99.90;;;;;;5032344;28;20485;-78
2021/11/12 23:00:00;;;;;;;15.80;10.73;;;6.00;99.90;;;;;;5032346;28;20411;-78
2021/11/12 23:02:27;;;;;;;19.03;10.87;;;6.00;99.90;;;;;;5032202;28;20434;-78
2021/11/12 23:04:53;;;;;;;18.83;11.80;;;6.00;99.90;;;;;;5032138;28;20418;-79
2021/11/12 23:07:18;;;;;;;18.30;11.77;;;5.90;99.90;;;;;;5032233;28;20425;-78
2021/11/12 23:09:47;;;;;;;18.17;12.40;;;5.90;99.90;;;;;;5032212;28;20804;-78
2021/11/12 23:12:14;;;;;;;21.07;13.20;;;6.00;99.90;;;;;;5031961;28;20717;-78
2021/11/12 23:14:39;;;;;;;18.13;11.57;;;6.00;99.90;;;;;;5032201;28;20410;-79
2021/11/12 23:17:06;;;;;;;17.27;11.50;;;6.10;99.90;;;;;;5031941;28;20495;-78
2021/11/12 23:19:31;;;;;;;18.57;11.33;;;6.10;99.90;;;;;;5031980;28;20417;-78
2021/11/12 23:21:58;;;;;;;15.47;11.27;;;6.10;99.90;;;;;;5031480;28;20471;-79
2021/11/12 23:24:24;;;;;;;17.23;11.57;;;6.00;99.90;;;;;;5031859;28;20179;-79
2021/11/12 23:26:50;;;;;;;18.87;11.33;;;6.00;99.90;;;;;;5031796;28;20955;-78
2021/11/12 23:29:16;;;;;;;15.90;11.10;;;5.90;99.90;;;;;;5031628;28;20421;-79
2021/11/12 23:31:42;;;;;;;20.57;12.43;;;6.00;99.90;;;;;;5031401;28;20458;-78
2021/11/12 23:34:08;;;;;;;19.53;10.63;;;6.00;99.90;;;;;;5031581;28;20190;-79